Kardla, Kardla Airport (EEKA)

NameKardla Airport
CityKardla
CountryEstonia
ICAOEEKA
IATAKDL
Altitude5 m
CoordinatesGoogle Map
Live Air TrafficLiveATC.net
METAREEKA 121450Z 14017KT 9999 BKN014 06/03 Q1012
2019-11-12 14:50:00 Wind: Southeast (140°) 8.75 m/s - Visibility: > 10000 m - Temperature: 6 °C - Dew point: 3 °C - Humidity: 81.3% - Pressure: 1012 hPa

Sorry, no flights used the airport in this database.